Steptoe Valley North, Nevada Weather observations

Data are for 10 minute period ending at time listed.
 Day   Time   Solar   Ave.   Ave.  Ave.  Vector  Max.   Baro.   Total    
  of    of     Rad.   Air    Rel.  Wind   Wind   Wind  Press.  Precip.   
Year   Day            Temp.  Hum.  Speed  Dir.   Gust                    
2014   (PST)  Kw/m2    F      %     mph   deg.    mph    mb.     in.     
-------------------------------------------------------------------------
 264    4:00   0.00   55.2    90   17.4   192    25.4   824.8    0.01 
 264    4:10   0.00   54.7    91   16.2   179    23.6   825.0    0.04 
 264    4:20   0.00   54.2    92   17.1   194    23.7   825.0    0.02 
 264    4:30   0.00   53.9    93   14.8   207    21.6   825.2    0.02 
 264    4:40   0.00   53.9    94   13.2   208    19.1   825.3    0.02 
 264    4:50   100.00  99999.0   99999  99999.0   99999   99999.0   99999.0   99999.00 
 264    5:00   0.00   53.7    91   13.9   200    21.0   825.2    0.00 
 264    5:10   0.00   53.8    91   13.1   209    18.9   825.1    0.03 
 264    5:20   0.00   53.3    92   11.2   200    17.0   825.2    0.02 
 264    5:30   0.00   53.0    92    9.3   196    15.6   825.0    0.00 
 264    5:40   0.00   52.9    92    7.6   190    13.1   824.9    0.00 
 264    5:50   0.01   53.0    90    8.2   190    13.0   824.9    0.00 
 264    6:00   0.01   53.1    89    5.0   188     9.7   824.9    0.00 
 264    6:10   0.01   53.3    88    7.1   164    10.6   825.1    0.01 
 264    6:20   0.01   53.7    87    6.4    93     8.7   824.9    0.00 
 264    6:30   0.00   53.1    89    6.4    56    10.8   824.9    0.00 
 264    6:40   0.01   53.3    88    3.1    74     5.6   825.1    0.00 
 264    6:50   0.01   53.1    91    5.6   284     9.1   825.2    0.05 
 264    7:00   0.01   52.7    92   10.2   341    17.1   824.4    0.02 
 264    7:10   0.04   52.4    93    9.1    17    17.6   823.9    0.00 
 264    7:20   0.06   53.2    90    8.6   100    13.1   824.5    0.01 
 264    7:30   0.08   54.2    83    7.3   131    12.0   825.0    0.00 
 264    7:40   0.10   54.7    83    4.9   140     7.2   824.9    0.00 
 264    7:50   0.13   55.3    83    2.6    44     6.1   824.6    0.00 
 264    8:00   0.18   55.5    86    4.1   266     6.7   824.8    0.00 
 264    8:10   0.29   55.5    89    4.4   277     7.1   825.0    0.00 
 264    8:20   0.30   56.2    86    5.3   304     7.5   824.9    0.00 
 264    8:30   0.23   56.1    86    4.1   287     6.6   825.3    0.00 
 264    8:40   0.23   56.2    84    3.3   280     4.7   825.4    0.00 
 264    8:50   0.26   56.7    83    2.2   291     3.9   825.3    0.00 
 264    9:00   0.39   57.3    80    2.7   303     4.5   825.3    0.00 
 264    9:10   0.36   58.0    78    1.9   328     4.2   825.3    0.00 
 264    9:20   0.30   58.4    77    1.3   358     3.3   825.4    0.00 
 264    9:30   0.34   58.7    76    1.2    31     2.6   825.5    0.00 
 264    9:40   0.38   60.0    75    0.3   192     1.6   825.5    0.00 
 264    9:50   0.37   60.3    76    1.4    37     3.4   825.5    0.00 
 264   10:00   0.30   59.5    77    3.0    31     4.7   825.3    0.00 
 264   10:10   0.48   59.8    76    1.7    31     3.6   825.3    0.00 
 264   10:20   0.31   60.3    72    1.6   318     4.5   825.2    0.00 
 264   10:30   0.25   59.8    72    1.8   303     3.1   825.1    0.00 
 264   10:40   0.23   59.7    72    1.0   294     2.8   825.0    0.00 
 264   10:50   0.28   60.1    69    0.8   357     2.4   824.9    0.00 
 264   11:00   0.75   61.2    68    1.1   349     2.4   824.9    0.00 
 264   11:10   0.93   63.9    63    1.8   152     3.7   824.9    0.00 
 264   11:20   0.51   64.9    57    1.2   204     3.1   824.9    0.00 
 264   11:30   0.88   65.1    57    1.4   197     3.0   824.8    0.00 
 264   11:40   0.88   64.5    62    2.3   359     7.0   824.8    0.00 
 264   11:50   0.86   64.5    64    2.7    42     6.6   824.8    0.00 
 264   12:00   0.86   64.9    64    3.6   122     6.6   824.6    0.00 
 264   12:10   0.86   65.6    61    3.0    78     5.4   824.4    0.00 
 264   12:20   0.85   66.8    58    1.8   152     4.0   824.1    0.00 
 264   12:30   0.83   68.0    56    1.9   157     5.6   824.1    0.00 
 264   12:40   0.81   68.3    54    2.8   211     6.0   823.9    0.00 
 264   12:50   0.79   67.8    54    2.8   129     5.7   823.7    0.00 
 264   13:00   0.78   67.5    56    3.2   130     7.5   823.6    0.00 
 264   13:10   0.77   67.9    56    2.9   116     5.8   823.4    0.00 
 264   13:20   0.75   69.3    54    1.4   238     3.7   823.3    0.00 
 264   13:30   0.71   69.8    52    0.7     2     2.1   823.1    0.00 
 264   13:40   0.69   69.8    53    2.2    96     7.0   822.8    0.00 
 264   13:50   0.68   69.8    53    2.9   117     5.9   822.7    0.00 
 264   14:00   0.66   71.3    52    1.7   193     5.5   822.6    0.00 
 264   14:10   0.65   70.7    51    2.7    17     6.6   822.5    0.00 
 264   14:20   0.33   69.1    53    3.4   334     5.7   822.5    0.00 
 264   14:30   0.22   67.6    52    3.3     4     6.8   822.5    0.00 
 264   14:40   0.19   68.2    54    1.6   340     5.3   822.5    0.00 
 264   14:50   0.14   67.4    60    1.9     7     4.2   822.4    0.00 
 264   15:00   0.20   66.8    65    2.7    50     3.7   822.2    0.00 
 264   15:10   0.15   66.8    66    2.2    26     3.0   822.3    0.00 
 264   15:20   0.14   66.2    71    2.4   354     3.4   822.3    0.00 
 264   15:30   0.12   65.8    71    2.2   353     3.4   822.3    0.00 
 264   15:40   0.06   65.4    72    2.5   328     3.4   822.3    0.00 
 264   15:50   0.01   64.2    65    8.3   263    26.0   822.8    0.00 
 264   16:00   0.00   58.4    63   15.0   231    24.3   823.6    0.00 
 264   16:10   0.01   54.6    78   14.8   208    23.3   824.3    0.04 
 264   16:20   0.02   53.3    84    9.2   170    14.0   824.4    0.01 
 264   16:30   0.06   52.9    86    8.4   153    15.8   824.3    0.01 
 264   16:40   0.10   54.0    85    4.6   136     6.7   824.1    0.00 
 264   16:50   0.05   54.6    85    4.3   134     6.6   824.2    0.00 
 264   17:00   0.05   55.1    84    2.8   171     4.5   824.3    0.00 
 264   17:10   0.03   55.2    84    5.3    31    12.3   824.2    0.00 
 264   17:20   0.02   53.9    85    4.7    32     9.7   824.4    0.00 
 264   17:30   0.01   52.9    89    4.8    34     7.6   824.4    0.00 
 264   17:40   0.01   51.9    90    4.8    27     8.6   824.5    0.00 
 264   17:50   0.00   51.3    90    5.7   357     7.7   824.5    0.00 
 264   18:00   0.00   50.4    92    4.7    10     6.6   824.5    0.00 
 264   18:10   0.00   50.4    92    3.6    27     6.2   824.4    0.00 
 264   18:20   0.00   50.9    92    4.6    28     7.8   824.4    0.00 
 264   18:30   0.00   51.7    90    6.5    36     9.9   824.4    0.00 
 264   18:40   0.00   51.8    91    3.8    33     5.6   824.5    0.00 
 264   18:50   0.00   51.8    92    3.2    53     5.8   824.6    0.00 
 264   19:00   0.00   51.9    92    0.5    70     2.1   824.6    0.00 
 264   19:10   0.00   51.6    91    1.7    46     4.0   824.4    0.00 
 264   19:20   0.00   51.4    92    0.1    50     0.6   824.4    0.00 
 264   19:30   0.00   51.4    92    0.8   108     2.9   824.2    0.00 
 264   19:40   0.00   51.5    93    2.7   105     3.6   824.2    0.00 
 264   19:50   0.00   50.9    92    1.5   130     3.0   824.3    0.00 
 264   20:00   0.00   50.9    93    0.5   140     1.5   824.3    0.00 
 264   20:10   0.00   50.8    93    0.8    70     2.2   824.3    0.00 
 264   20:20   0.00   49.1    92    2.6    45     3.8   824.4    0.00 
 264   20:30   0.00   47.7    93    2.4    41     4.8   824.4    0.00 
 264   20:40   0.00   48.9    94    2.5    70     4.9   824.2    0.00 
 264   20:50   0.00   50.7    92    1.2    86     4.2   824.2    0.00 
 264   21:00   0.00   51.0    87    1.4   343     3.7   824.3    0.00 
 264   21:10   0.00   50.5    87    5.2   208     7.2   824.2    0.00 
 264   21:20   0.00   49.8    88    4.1   210     6.0   824.2    0.00 
 264   21:30   0.00   49.0    89    2.3   107     5.2   824.2    0.00 
 264   21:40   0.00   49.3    91    2.3    84     4.0   824.2    0.00 
 264   21:50   0.00   50.3    88    2.4   129     4.5   824.3    0.00 
 264   22:00   0.00   49.7    88    3.0   132     5.4   824.3    0.00 
 264   22:10   0.00   47.4    89    3.4   142     5.5   824.3    0.00 
 264   22:20   0.00   47.0    92    0.3   121     1.5   824.3    0.00 
 264   22:30   0.00   45.5    92    1.3    45     2.5   824.3    0.00 
 264   22:40   0.00   46.1    94    1.5    92     3.0   824.2    0.00 
 264   22:50   0.00   46.7    95    2.4   141     3.9   824.1    0.00 
 264   23:00   0.00   47.0    94    3.8   199     6.3   824.0    0.00 
 264   23:10   0.00   47.0    94    6.2   226     7.6   824.0    0.00 
 264   23:20   0.00   47.6    92    4.6   222     6.6   824.1    0.00 
 264   23:30   0.00   46.9    92    4.3   225     5.3   824.2    0.00 
 264   23:40   0.00   46.3    92    4.6   180     5.8   824.2    0.00 
 264   23:50   0.00   45.6    93    3.2   123     4.5   824.2    0.00 
 265    0:00   0.00   46.1    93    1.7   106     3.4   824.3    0.00 
 265    0:10   0.00   45.8    93    1.8   149     2.6   824.4    0.00 
 265    0:20   0.00   45.8    93    0.9   188     1.9   824.4    0.00 
 265    0:30   0.00   45.6    93    1.9   282     2.6   824.4    0.00 
 265    0:40   0.00   46.6    93    0.9   233     2.1   824.5    0.00 
 265    0:50   0.00   43.3    91    3.3    24     4.7   824.5    0.00 
 265    1:00   0.00   42.5    93    2.0   342     3.2   824.5    0.00 
 265    1:10   0.00   41.1    93    3.7    28     4.3   824.6    0.00 
 265    1:20   0.00   42.2    96    1.9    68     3.7   824.6    0.00 
 265    1:30   0.00   43.9    95    3.3   129     4.6   824.6    0.00 
 265    1:40   0.00   43.8    95    3.2   116     4.5   824.6    0.00 
 265    1:50   0.00   43.7    95    1.4   113     3.6   824.6    0.00 
 265    2:00   0.00   43.2    95    2.8   111     3.9   824.5    0.00 
 265    2:10   0.00   42.4    95    3.0   126     4.0   824.5    0.00 
 265    2:20   0.00   42.4    95    0.8   110     2.9   824.6    0.00 
 265    2:30   0.00   41.2    95    1.8    69     2.4   824.5    0.00 
 265    2:40   0.00   41.6    95    2.8    75     3.5   824.5    0.00 
 265    2:50   0.00   40.8    96    4.1    76     5.6   824.6    0.00 
 265    3:00   0.00   42.5    97    4.0   102     5.6   824.6    0.00 
 265    3:10   0.00   42.8    96    3.0   120     4.9   824.6    0.00 
 265    3:20   0.00   43.3    96    2.5   133     4.0   824.7    0.00 
 265    3:30   0.00   43.5    96    1.6   149     3.0   824.7    0.00 
 265    3:40   0.00   43.6    96    3.8   131     5.7   824.7    0.00 
 265    3:50   0.00   44.3    95    2.7   170     4.0   824.7    0.00 

Return to Steptoe Valley North graphs page.


Western Regional Climate Center,wrcc@dri.edu